Tokyo Haneda International Airport

Airport
ICAO code: 
RJTT
IATA Code: 
HND
Summary
ICAO Region: 
APAC
Territory: 
Location: 
Ōta, Tokyo Metropolis
Serving: 
Tokyo
Elevation: 
21 ft
Coordinates: 
Aerial View: 
35° 32' 55.788" N, 139° 47' 1.86" E
Airport LOS: 
Parallel Runway Operation
Airport WX: 
Tropical Revolving Storm
Metar
Observation
RJTT 221030Z VRB01KT 9999 FEW030 BKN/// 08/M05 Q1024 BECMG TL1100 34008KT RMK 1CU030 A3025
Station
Tokyo International Airport
Date/Time
2022-01-22 10:30:00
Wind speed
01 kts
Lowest cloud amount
few clouds
Temperature
8°C
Dew point
-5°C
Humidity
39%
QNH
1024 hPa
Weather condition
n/a

The primary international airport serving the Greater Tokyo Area. It is located in Ōta, Tokyo, 14 km south of Tokyo Station, Japan.

Climatology

Humid subtropical climate (Köppen climate classification Cfa).

Runways

Designator Length Width Surface Rops
4/22 2499 61 ASP Yes/Yes
16L/34R 2999 61 ASP Yes/Yes
16R/34L 2999 61 ASP Yes/Yes
Airport map: 
Aerial View: 

Accidents and Serious Incidents at or in the vicinity of RJTT

SKYbrary Partners:

Safety knowledge contributed by: